sensor_id;sensor_type;location;lat;lon;timestamp;P1;durP1;ratioP1;P2;durP2;ratioP2
4355;SDS011;64374;51.482;7.408;2023-12-04T19:08:00;6.00;;;4.50;;
4355;SDS011;64374;51.482;7.408;2023-12-04T19:10:47;5.72;;;4.45;;
4355;SDS011;64374;51.482;7.408;2023-12-04T19:13:36;4.90;;;4.00;;
4355;SDS011;64374;51.482;7.408;2023-12-04T19:16:23;6.87;;;4.70;;
4355;SDS011;64374;51.482;7.408;2023-12-04T19:19:09;7.07;;;4.80;;
4355;SDS011;64374;51.482;7.408;2023-12-04T19:21:57;5.60;;;4.47;;
4355;SDS011;64374;51.482;7.408;2023-12-04T19:24:45;5.37;;;4.20;;
4355;SDS011;64374;51.482;7.408;2023-12-04T19:27:32;5.03;;;4.47;;
4355;SDS011;64374;51.482;7.408;2023-12-04T19:30:19;4.50;;;3.07;;
4355;SDS011;64374;51.482;7.408;2023-12-04T19:33:06;8.77;;;4.00;;
4355;SDS011;64374;51.482;7.408;2023-12-04T19:36:03;4.70;;;3.80;;
4355;SDS011;64374;51.482;7.408;2023-12-04T19:38:53;7.03;;;5.47;;
4355;SDS011;64374;51.482;7.408;2023-12-04T19:41:41;5.10;;;4.33;;
4355;SDS011;64374;51.482;7.408;2023-12-04T19:44:27;7.00;;;4.23;;
4355;SDS011;64374;51.482;7.408;2023-12-04T19:47:15;4.53;;;3.67;;
4355;SDS011;64374;51.482;7.408;2023-12-04T19:50:01;3.53;;;3.23;;
4355;SDS011;64374;51.482;7.408;2023-12-04T19:52:50;5.20;;;3.60;;
4355;SDS011;64374;51.482;7.408;2023-12-04T19:55:37;5.77;;;3.63;;
4355;SDS011;64374;51.482;7.408;2023-12-04T19:58:28;4.43;;;3.60;;
4355;SDS011;64374;51.482;7.408;2023-12-04T20:01:22;6.50;;;4.57;;
4355;SDS011;64374;51.482;7.408;2023-12-04T20:04:10;5.47;;;3.80;;
4355;SDS011;64374;51.482;7.408;2023-12-04T20:06:57;5.37;;;4.07;;
4355;SDS011;64374;51.482;7.408;2023-12-04T20:09:44;4.70;;;3.60;;
4355;SDS011;64374;51.482;7.408;2023-12-04T20:12:31;15.00;;;7.63;;
4355;SDS011;64374;51.482;7.408;2023-12-04T20:15:01;14.33;;;7.70;;
4355;SDS011;64374;51.482;7.408;2023-12-04T20:17:30;7.00;;;4.70;;
4355;SDS011;64374;51.482;7.408;2023-12-04T20:19:58;4.53;;;3.57;;
4355;SDS011;64374;51.482;7.408;2023-12-04T20:22:26;6.33;;;4.83;;
4355;SDS011;64374;51.482;7.408;2023-12-04T20:24:55;4.30;;;3.67;;
4355;SDS011;64374;51.482;7.408;2023-12-04T20:27:26;5.00;;;4.23;;
4355;SDS011;64374;51.482;7.408;2023-12-04T20:29:54;4.30;;;3.90;;
4355;SDS011;64374;51.482;7.408;2023-12-04T20:32:27;5.27;;;3.60;;
4355;SDS011;64374;51.482;7.408;2023-12-04T20:34:56;3.10;;;2.80;;
4355;SDS011;64374;51.482;7.408;2023-12-04T20:37:25;3.43;;;3.13;;
4355;SDS011;64374;51.482;7.408;2023-12-04T20:40:08;3.60;;;3.17;;
4355;SDS011;64374;51.482;7.408;2023-12-04T20:42:37;3.57;;;2.90;;
4355;SDS011;64374;51.482;7.408;2023-12-04T20:45:08;4.30;;;3.60;;
4355;SDS011;64374;51.482;7.408;2023-12-04T20:47:40;3.60;;;3.00;;
4355;SDS011;64374;51.482;7.408;2023-12-04T20:50:10;3.57;;;3.23;;
4355;SDS011;64374;51.482;7.408;2023-12-04T20:52:38;3.93;;;3.53;;
4355;SDS011;64374;51.482;7.408;2023-12-04T20:55:07;3.93;;;3.17;;
4355;SDS011;64374;51.482;7.408;2023-12-04T20:57:36;4.00;;;3.23;;
4355;SDS011;64374;51.482;7.408;2023-12-04T21:00:08;3.43;;;3.07;;
4355;SDS011;64374;51.482;7.408;2023-12-04T21:03:00;4.07;;;3.33;;
4355;SDS011;64374;51.482;7.408;2023-12-04T21:05:47;3.47;;;2.80;;
4355;SDS011;64374;51.482;7.408;2023-12-04T21:08:34;4.80;;;3.33;;
4355;SDS011;64374;51.482;7.408;2023-12-04T21:11:23;5.03;;;4.00;;
4355;SDS011;64374;51.482;7.408;2023-12-04T21:14:13;2.90;;;2.63;;
4355;SDS011;64374;51.482;7.408;2023-12-04T21:17:00;3.90;;;3.50;;
4355;SDS011;64374;51.482;7.408;2023-12-04T21:19:50;4.23;;;3.40;;
4355;SDS011;64374;51.482;7.408;2023-12-04T21:22:38;3.30;;;3.00;;
4355;SDS011;64374;51.482;7.408;2023-12-04T21:25:26;4.80;;;3.67;;
4355;SDS011;64374;51.482;7.408;2023-12-04T21:28:13;9.03;;;6.33;;
4355;SDS011;64374;51.482;7.408;2023-12-04T21:31:15;5.90;;;4.00;;
4355;SDS011;64374;51.482;7.408;2023-12-04T21:34:02;5.97;;;3.90;;
4355;SDS011;64374;51.482;7.408;2023-12-04T21:36:58;5.03;;;3.27;;
4355;SDS011;64374;51.482;7.408;2023-12-04T21:39:44;3.70;;;3.10;;
4355;SDS011;64374;51.482;7.408;2023-12-04T21:42:33;4.43;;;3.13;;
4355;SDS011;64374;51.482;7.408;2023-12-04T21:45:20;2.60;;;2.40;;
4355;SDS011;64374;51.482;7.408;2023-12-04T21:48:07;3.13;;;2.83;;
4355;SDS011;64374;51.482;7.408;2023-12-04T21:51:04;2.60;;;2.40;;
4355;SDS011;64374;51.482;7.408;2023-12-04T21:53:53;4.13;;;2.73;;
4355;SDS011;64374;51.482;7.408;2023-12-04T21:56:41;2.67;;;2.47;;
4355;SDS011;64374;51.482;7.408;2023-12-04T21:59:28;3.20;;;2.60;;
4355;SDS011;64374;51.482;7.408;2023-12-04T22:02:28;4.07;;;2.77;;
4355;SDS011;64374;51.482;7.408;2023-12-04T22:04:57;3.53;;;3.23;;
4355;SDS011;64374;51.482;7.408;2023-12-04T22:07:28;3.73;;;3.40;;
4355;SDS011;64374;51.482;7.408;2023-12-04T22:10:00;3.33;;;3.03;;
4355;SDS011;64374;51.482;7.408;2023-12-04T22:12:31;2.83;;;2.53;;
4355;SDS011;64374;51.482;7.408;2023-12-04T22:15:00;3.57;;;2.93;;
4355;SDS011;64374;51.482;7.408;2023-12-04T22:17:30;3.40;;;2.83;;
4355;SDS011;64374;51.482;7.408;2023-12-04T22:20:02;3.00;;;2.80;;
4355;SDS011;64374;51.482;7.408;2023-12-04T22:22:35;3.10;;;2.57;;
4355;SDS011;64374;51.482;7.408;2023-12-04T22:25:06;4.07;;;3.03;;
4355;SDS011;64374;51.482;7.408;2023-12-04T22:27:35;3.60;;;3.30;;
4355;SDS011;64374;51.482;7.408;2023-12-04T22:30:05;3.73;;;2.80;;
4355;SDS011;64374;51.482;7.408;2023-12-04T22:32:34;3.47;;;2.77;;
4355;SDS011;64374;51.482;7.408;2023-12-04T22:35:05;3.80;;;3.43;;
4355;SDS011;64374;51.482;7.408;2023-12-04T22:37:34;3.93;;;3.30;;
4355;SDS011;64374;51.482;7.408;2023-12-04T22:40:09;3.83;;;3.43;;
4355;SDS011;64374;51.482;7.408;2023-12-04T22:42:40;6.43;;;3.00;;
4355;SDS011;64374;51.482;7.408;2023-12-04T22:45:10;2.83;;;2.63;;
4355;SDS011;64374;51.482;7.408;2023-12-04T22:47:39;4.43;;;2.60;;
4355;SDS011;64374;51.482;7.408;2023-12-04T22:50:08;3.57;;;3.17;;
4355;SDS011;64374;51.482;7.408;2023-12-04T22:52:55;2.93;;;2.67;;
4355;SDS011;64374;51.482;7.408;2023-12-04T22:55:55;3.63;;;3.30;;
4355;SDS011;64374;51.482;7.408;2023-12-04T22:58:42;4.67;;;3.97;;
4355;SDS011;64374;51.482;7.408;2023-12-04T23:01:29;2.73;;;2.50;;
4355;SDS011;64374;51.482;7.408;2023-12-04T23:04:18;4.60;;;3.30;;
4355;SDS011;64374;51.482;7.408;2023-12-04T23:07:05;3.47;;;2.90;;
4355;SDS011;64374;51.482;7.408;2023-12-04T23:09:51;2.80;;;2.60;;
4355;SDS011;64374;51.482;7.408;2023-12-04T23:12:44;2.60;;;2.40;;
4355;SDS011;64374;51.482;7.408;2023-12-04T23:15:32;3.03;;;2.73;;
4355;SDS011;64374;51.482;7.408;2023-12-04T23:18:19;2.73;;;2.53;;
4355;SDS011;64374;51.482;7.408;2023-12-04T23:21:08;5.67;;;3.77;;
4355;SDS011;64374;51.482;7.408;2023-12-04T23:23:58;2.87;;;2.27;;
4355;SDS011;64374;51.482;7.408;2023-12-04T23:26:45;3.80;;;3.40;;
4355;SDS011;64374;51.482;7.408;2023-12-04T23:29:34;2.27;;;2.07;;
4355;SDS011;64374;51.482;7.408;2023-12-04T23:32:20;2.93;;;2.70;;
4355;SDS011;64374;51.482;7.408;2023-12-04T23:35:09;2.70;;;2.50;;
4355;SDS011;64374;51.482;7.408;2023-12-04T23:37:57;3.37;;;2.30;;
4355;SDS011;64374;51.482;7.408;2023-12-04T23:40:44;2.80;;;2.53;;
4355;SDS011;64374;51.482;7.408;2023-12-04T23:43:33;2.93;;;2.70;;
4355;SDS011;64374;51.482;7.408;2023-12-04T23:46:21;3.30;;;3.00;;
4355;SDS011;64374;51.482;7.408;2023-12-04T23:49:08;2.90;;;2.60;;
4355;SDS011;64374;51.482;7.408;2023-12-04T23:51:55;3.50;;;2.40;;
4355;SDS011;64374;51.482;7.408;2023-12-04T23:54:41;2.47;;;2.27;;
4355;SDS011;64374;51.482;7.408;2023-12-04T23:57:28;3.37;;;2.00;;
